Thunder radar more information blitzortung!


Radar de pluja more information rain snow radar


Visita la nostra xarxa de llocs de meteo:

Template documentation
and downloads

And another site



No particular awareness of the weather is required.    There are no Weather-warnings

Pagina Historial Weather Underground text

Diari Resum Agost 7, 2017 Unitats:  Tant    Imperial   Mètric
« Previous Dia
SegĂźent Dia »
Diari Setmana Mensual Anual Personalitzada
  Maxima: Minima: Media:
Temperatura: 90 °F /  32.2 °C 71.2 °F /  21.8 °C 82.9 °F /  28.3 °C
Punt de rosada: 69.8 °F /  21.0 °C 59.4 °F /  15.2 °C 65.8 °F /  18.8 °C
Humitat: 80 % 38 % 57 %
Wind Speed: 10 mph /  16.1 km/h - 2.1 mph /  3.4 km/h
RĂ fegues de vent: 13 mph /  20.9 km/h - -
Vent:- - South
Pression baro: 30 in /  1015.8 hPa 29.7 in /  1007.0 hPa -
Precipitacions: 0 in /  0.0 mm    
Historical Graphs
 
 
Dades de taula per Agost 7, 2017
Temps Temperatura Punt de rosada Pression baro Vent Wind Speed RĂ fegues de vent Humitat Rainfall Rate (Hourly)
00:03 74.7 °F /  23.7 °C 65.5 °F /  18.6 °C 30 in /  1015.8 hPa WSW 2.3 mph /  3.7 km/h 2.3 mph /  3.7 km/h 73 % 0 in /  0.0 mm
00:05 72 °F /  22.2 °C 64.8 °F /  18.2 °C 30 in /  1014.8 hPa SW 1 mph /  1.6 km/h 1 mph /  1.6 km/h 78 % 0 in /  0.0 mm
00:08 74.7 °F /  23.7 °C 65.5 °F /  18.6 °C 30 in /  1015.8 hPa SW 2.3 mph /  3.7 km/h 2.3 mph /  3.7 km/h 73 % 0 in /  0.0 mm
00:15 71.8 °F /  22.1 °C 64.6 °F /  18.1 °C 30 in /  1014.8 hPa SW 1 mph /  1.6 km/h 2 mph /  3.2 km/h 78 % 0 in /  0.0 mm
00:25 71.8 °F /  22.1 °C 64.6 °F /  18.1 °C 30 in /  1014.8 hPa SW 2 mph /  3.2 km/h 2 mph /  3.2 km/h 78 % 0 in /  0.0 mm
00:35 71.6 °F /  22.0 °C 64.4 °F /  18.0 °C 30 in /  1014.8 hPa SW 1 mph /  1.6 km/h 2 mph /  3.2 km/h 78 % 0 in /  0.0 mm
00:45 71.6 °F /  22.0 °C 64.8 °F /  18.2 °C 30 in /  1014.8 hPa SW 1 mph /  1.6 km/h 2 mph /  3.2 km/h 79 % 0 in /  0.0 mm
00:55 71.6 °F /  22.0 °C 64.8 °F /  18.2 °C 30 in /  1014.8 hPa Calm     79 % 0 in /  0.0 mm
01:05 71.4 °F /  21.9 °C 64.6 °F /  18.1 °C 30 in /  1014.8 hPa Calm     79 % 0 in /  0.0 mm
01:15 71.4 °F /  21.9 °C 64.6 °F /  18.1 °C 30 in /  1014.8 hPa Calm     79 % 0 in /  0.0 mm
01:25 71.4 °F /  21.9 °C 64.6 °F /  18.1 °C 30 in /  1014.8 hPa Calm     79 % 0 in /  0.0 mm
01:35 71.2 °F /  21.8 °C 64.4 °F /  18.0 °C 30 in /  1014.8 hPa Calm     79 % 0 in /  0.0 mm
01:45 71.2 °F /  21.8 °C 64.8 °F /  18.2 °C 30 in /  1014.8 hPa Calm     80 % 0 in /  0.0 mm
01:55 71.2 °F /  21.8 °C 64.8 °F /  18.2 °C 30 in /  1014.8 hPa Calm   1 mph /  1.6 km/h 80 % 0 in /  0.0 mm
02:05 71.2 °F /  21.8 °C 64.8 °F /  18.2 °C 30 in /  1014.8 hPa Calm   1 mph /  1.6 km/h 80 % 0 in /  0.0 mm
02:15 71.4 °F /  21.9 °C 64.9 °F /  18.3 °C 30 in /  1014.8 hPa Calm   1 mph /  1.6 km/h 80 % 0 in /  0.0 mm
02:25 71.6 °F /  22.0 °C 65.1 °F /  18.4 °C 30 in /  1014.8 hPa Calm     80 % 0 in /  0.0 mm
02:35 71.6 °F /  22.0 °C 65.1 °F /  18.4 °C 29.9 in /  1013.8 hPa Calm     80 % 0 in /  0.0 mm
02:45 72 °F /  22.2 °C 65.1 °F /  18.4 °C 29.9 in /  1013.8 hPa East 1 mph /  1.6 km/h 2 mph /  3.2 km/h 79 % 0 in /  0.0 mm
02:55 72.3 °F /  22.4 °C 65.5 °F /  18.6 °C 29.9 in /  1013.8 hPa Calm   1 mph /  1.6 km/h 79 % 0 in /  0.0 mm
03:05 72.7 °F /  22.6 °C 65.5 °F /  18.6 °C 29.9 in /  1013.8 hPa SW 2 mph /  3.2 km/h 2 mph /  3.2 km/h 78 % 0 in /  0.0 mm
03:15 72.7 °F /  22.6 °C 65.5 °F /  18.6 °C 29.9 in /  1013.8 hPa SW 2 mph /  3.2 km/h 2 mph /  3.2 km/h 78 % 0 in /  0.0 mm
03:25 73.4 °F /  23.0 °C 66 °F /  18.9 °C 30 in /  1014.8 hPa Calm   2 mph /  3.2 km/h 78 % 0 in /  0.0 mm
03:35 74.8 °F /  23.8 °C 66.7 °F /  19.3 °C 30 in /  1014.8 hPa SSW 2 mph /  3.2 km/h 2 mph /  3.2 km/h 76 % 0 in /  0.0 mm
03:45 75.6 °F /  24.2 °C 67.1 °F /  19.5 °C 30 in /  1014.8 hPa Calm   1 mph /  1.6 km/h 75 % 0 in /  0.0 mm
03:55 75.9 °F /  24.4 °C 67.5 °F /  19.7 °C 30 in /  1014.8 hPa South 1 mph /  1.6 km/h 3 mph /  4.8 km/h 75 % 0 in /  0.0 mm
04:05 76.6 °F /  24.8 °C 67.6 °F /  19.8 °C 29.9 in /  1013.8 hPa South 1 mph /  1.6 km/h 3 mph /  4.8 km/h 74 % 0 in /  0.0 mm
04:15 77.5 °F /  25.3 °C 67.8 °F /  19.9 °C 29.9 in /  1013.8 hPa Calm   2 mph /  3.2 km/h 72 % 0 in /  0.0 mm
09:15 87.3 °F /  30.7 °C 66.4 °F /  19.1 °C 29.9 in /  1012.8 hPa SSW 10 mph /  16.1 km/h 11 mph /  17.7 km/h 50 % 0 in /  0.0 mm
09:17 78.3 °F /  25.7 °C 67.6 °F /  19.8 °C 29.9 in /  1013.8 hPa SSE 2.6 mph /  4.2 km/h 2.6 mph /  4.2 km/h 70 % 0 in /  0.0 mm
09:18 78.3 °F /  25.7 °C 67.6 °F /  19.8 °C 29.9 in /  1013.8 hPa SSE 2.6 mph /  4.2 km/h 2.6 mph /  4.2 km/h 70 % 0 in /  0.0 mm
09:23 78.6 °F /  25.9 °C 68 °F /  20.0 °C 29.9 in /  1013.8 hPa SE 1.2 mph /  1.9 km/h   70 % 0 in /  0.0 mm
09:25 87.4 °F /  30.8 °C 66.6 °F /  19.2 °C 29.9 in /  1012.8 hPa SW 8 mph /  12.9 km/h 9 mph /  14.5 km/h 50 % 0 in /  0.0 mm
09:28 79 °F /  26.1 °C 67.8 °F /  19.9 °C 29.9 in /  1013.8 hPa ESE 2.3 mph /  3.7 km/h 2.3 mph /  3.7 km/h 69 % 0 in /  0.0 mm
09:33 79.7 °F /  26.5 °C 67.8 °F /  19.9 °C 29.9 in /  1013.8 hPa SSW 1.2 mph /  1.9 km/h   67 % 0 in /  0.0 mm
09:35 88.3 °F /  31.3 °C 66.7 °F /  19.3 °C 29.9 in /  1011.7 hPa SW 3 mph /  4.8 km/h 6 mph /  9.7 km/h 49 % 0 in /  0.0 mm
09:38 80.1 °F /  26.7 °C 68.2 °F /  20.1 °C 29.9 in /  1013.8 hPa North 2.3 mph /  3.7 km/h 2.3 mph /  3.7 km/h 67 % 0 in /  0.0 mm
09:43 80.1 °F /  26.7 °C 68.2 °F /  20.1 °C 29.9 in /  1013.8 hPa WSW 2.4 mph /  3.9 km/h 2.4 mph /  3.9 km/h 67 % 0 in /  0.0 mm
09:45 89.1 °F /  31.7 °C 67.5 °F /  19.7 °C 29.9 in /  1011.7 hPa SW 2 mph /  3.2 km/h 5 mph /  8.0 km/h 49 % 0 in /  0.0 mm
09:48 80.6 °F /  27.0 °C 67.6 °F /  19.8 °C 29.9 in /  1013.8 hPa SSW 2.2 mph /  3.5 km/h   65 % 0 in /  0.0 mm
09:55 89.4 °F /  31.9 °C 67.1 °F /  19.5 °C 29.9 in /  1011.7 hPa SW 8 mph /  12.9 km/h 8 mph /  12.9 km/h 48 % 0 in /  0.0 mm
09:58 81.1 °F /  27.3 °C 67.8 °F /  19.9 °C 29.9 in /  1013.8 hPa WSW 4.3 mph /  6.9 km/h 4.3 mph /  6.9 km/h 64 % 0 in /  0.0 mm
10:03 80.6 °F /  27.0 °C 67.3 °F /  19.6 °C 29.9 in /  1013.8 hPa SSW 5.8 mph /  9.3 km/h 5.8 mph /  9.3 km/h 64 % 0 in /  0.0 mm
10:05 89.6 °F /  32.0 °C 67.3 °F /  19.6 °C 29.9 in /  1011.7 hPa SSW 5 mph /  8.0 km/h 11 mph /  17.7 km/h 48 % 0 in /  0.0 mm
10:08 80.8 °F /  27.1 °C 66.9 °F /  19.4 °C 29.9 in /  1013.8 hPa WSW 4.6 mph /  7.4 km/h 4.6 mph /  7.4 km/h 63 % 0 in /  0.0 mm
10:13 81.3 °F /  27.4 °C 67.5 °F /  19.7 °C 29.9 in /  1013.8 hPa SW 4.6 mph /  7.4 km/h 4.6 mph /  7.4 km/h 63 % 0 in /  0.0 mm
10:15 89.1 °F /  31.7 °C 66.7 °F /  19.3 °C 29.9 in /  1011.7 hPa SW 2 mph /  3.2 km/h 8 mph /  12.9 km/h 48 % 0 in /  0.0 mm
10:18 82 °F /  27.8 °C 67.6 °F /  19.8 °C 29.9 in /  1013.8 hPa ENE 2.3 mph /  3.7 km/h 2.3 mph /  3.7 km/h 62 % 0 in /  0.0 mm
10:23 82.8 °F /  28.2 °C 67.8 °F /  19.9 °C 29.9 in /  1013.8 hPa WSW 5.8 mph /  9.3 km/h 5.8 mph /  9.3 km/h 61 % 0 in /  0.0 mm
10:25 89.6 °F /  32.0 °C 67.3 °F /  19.6 °C 29.9 in /  1011.7 hPa SW 3 mph /  4.8 km/h 8 mph /  12.9 km/h 48 % 0 in /  0.0 mm
10:28 83.1 °F /  28.4 °C 68.4 °F /  20.2 °C 29.9 in /  1013.8 hPa West 3.5 mph /  5.6 km/h 3.5 mph /  5.6 km/h 61 % 0 in /  0.0 mm
10:33 82.8 °F /  28.2 °C 67.5 °F /  19.7 °C 29.9 in /  1013.8 hPa West 4.6 mph /  7.4 km/h 4.6 mph /  7.4 km/h 60 % 0 in /  0.0 mm
10:35 89.8 °F /  32.1 °C 67.5 °F /  19.7 °C 29.9 in /  1011.7 hPa SW 3 mph /  4.8 km/h 9 mph /  14.5 km/h 48 % 0 in /  0.0 mm
10:38 83.3 °F /  28.5 °C 67.5 °F /  19.7 °C 29.9 in /  1013.8 hPa SW 4.7 mph /  7.6 km/h 4.7 mph /  7.6 km/h 59 % 0 in /  0.0 mm
10:43 83.3 °F /  28.5 °C 66.9 °F /  19.4 °C 29.9 in /  1013.8 hPa WSW 3.5 mph /  5.6 km/h 3.5 mph /  5.6 km/h 58 % 0 in /  0.0 mm
10:45 88.7 °F /  31.5 °C 66.6 °F /  19.2 °C 29.9 in /  1011.7 hPa SW 6 mph /  9.7 km/h 8 mph /  12.9 km/h 48 % 0 in /  0.0 mm
10:48 82.8 °F /  28.2 °C 66.9 °F /  19.4 °C 29.9 in /  1013.8 hPa West 5.8 mph /  9.3 km/h 5.8 mph /  9.3 km/h 59 % 0 in /  0.0 mm
10:53 82.4 °F /  28.0 °C 66.6 °F /  19.2 °C 29.9 in /  1013.8 hPa West 2.3 mph /  3.7 km/h 2.3 mph /  3.7 km/h 59 % 0 in /  0.0 mm
10:55 88.9 °F /  31.6 °C 66.7 °F /  19.3 °C 29.9 in /  1011.7 hPa SW 5 mph /  8.0 km/h 5 mph /  8.0 km/h 48 % 0 in /  0.0 mm
10:58 82.6 °F /  28.1 °C 66.4 °F /  19.1 °C 29.9 in /  1013.8 hPa SW 2.3 mph /  3.7 km/h 2.3 mph /  3.7 km/h 58 % 0 in /  0.0 mm
11:03 83.1 °F /  28.4 °C 66.7 °F /  19.3 °C 29.9 in /  1013.8 hPa SW 2.3 mph /  3.7 km/h 2.3 mph /  3.7 km/h 58 % 0 in /  0.0 mm
11:05 88.7 °F /  31.5 °C 67.1 °F /  19.5 °C 29.9 in /  1011.7 hPa SW 3 mph /  4.8 km/h 8 mph /  12.9 km/h 49 % 0 in /  0.0 mm
11:08 84.2 °F /  29.0 °C 66.7 °F /  19.3 °C 29.9 in /  1013.8 hPa WSW 3.5 mph /  5.6 km/h 3.5 mph /  5.6 km/h 56 % 0 in /  0.0 mm
11:13 84.9 °F /  29.4 °C 67.5 °F /  19.7 °C 29.9 in /  1013.8 hPa West 4.6 mph /  7.4 km/h 4.6 mph /  7.4 km/h 56 % 0 in /  0.0 mm
11:15 88.2 °F /  31.2 °C 66.6 °F /  19.2 °C 29.9 in /  1011.7 hPa SW 6 mph /  9.7 km/h 8 mph /  12.9 km/h 49 % 0 in /  0.0 mm
11:18 84.9 °F /  29.4 °C 66.4 °F /  19.1 °C 29.9 in /  1013.8 hPa West 5.8 mph /  9.3 km/h 5.8 mph /  9.3 km/h 54 % 0 in /  0.0 mm
11:23 85.6 °F /  29.8 °C 67.1 °F /  19.5 °C 29.9 in /  1013.8 hPa South 4.6 mph /  7.4 km/h 4.6 mph /  7.4 km/h 54 % 0 in /  0.0 mm
11:25 88 °F /  31.1 °C 65.8 °F /  18.8 °C 29.9 in /  1011.7 hPa SW 7 mph /  11.3 km/h 13 mph /  20.9 km/h 48 % 0 in /  0.0 mm
11:28 84.9 °F /  29.4 °C 65.8 °F /  18.8 °C 29.9 in /  1013.8 hPa SW 4.6 mph /  7.4 km/h 4.6 mph /  7.4 km/h 53 % 0 in /  0.0 mm
11:33 85.1 °F /  29.5 °C 66 °F /  18.9 °C 29.9 in /  1013.8 hPa South 1.6 mph /  2.6 km/h 2.4 mph /  3.9 km/h 53 % 0 in /  0.0 mm
11:35 88.2 °F /  31.2 °C 66 °F /  18.9 °C 29.8 in /  1010.7 hPa SW 7 mph /  11.3 km/h 9 mph /  14.5 km/h 48 % 0 in /  0.0 mm
11:38 85.1 °F /  29.5 °C 66 °F /  18.9 °C 29.9 in /  1013.8 hPa South 1.6 mph /  2.6 km/h 2.4 mph /  3.9 km/h 53 % 0 in /  0.0 mm
11:43 85.1 °F /  29.5 °C 66 °F /  18.9 °C 29.9 in /  1013.8 hPa South 1.6 mph /  2.6 km/h 2.4 mph /  3.9 km/h 53 % 0 in /  0.0 mm
11:45 88.5 °F /  31.4 °C 65.7 °F /  18.7 °C 29.8 in /  1010.7 hPa SW 8 mph /  12.9 km/h 10 mph /  16.1 km/h 47 % 0 in /  0.0 mm
11:48 85.1 °F /  29.5 °C 66 °F /  18.9 °C 29.9 in /  1013.8 hPa South 1.6 mph /  2.6 km/h 2.4 mph /  3.9 km/h 53 % 0 in /  0.0 mm
11:53 85.1 °F /  29.5 °C 66 °F /  18.9 °C 29.9 in /  1013.8 hPa South 1.6 mph /  2.6 km/h 2.4 mph /  3.9 km/h 53 % 0 in /  0.0 mm
11:55 89.6 °F /  32.0 °C 66 °F /  18.9 °C 29.8 in /  1010.7 hPa SW 3 mph /  4.8 km/h 5 mph /  8.0 km/h 46 % 0 in /  0.0 mm
11:58 85.1 °F /  29.5 °C 66 °F /  18.9 °C 29.9 in /  1013.8 hPa South 1.6 mph /  2.6 km/h 2.4 mph /  3.9 km/h 53 % 0 in /  0.0 mm
12:03 85.1 °F /  29.5 °C 66 °F /  18.9 °C 29.9 in /  1013.8 hPa South 1.6 mph /  2.6 km/h 2.4 mph /  3.9 km/h 53 % 0 in /  0.0 mm
12:05 88.5 °F /  31.4 °C 65.1 °F /  18.4 °C 29.8 in /  1010.7 hPa SW 7 mph /  11.3 km/h 11 mph /  17.7 km/h 46 % 0 in /  0.0 mm
12:08 85.1 °F /  29.5 °C 66 °F /  18.9 °C 29.9 in /  1013.8 hPa South 1.6 mph /  2.6 km/h 2.4 mph /  3.9 km/h 53 % 0 in /  0.0 mm
12:13 85.1 °F /  29.5 °C 66 °F /  18.9 °C 29.9 in /  1013.8 hPa South 1.6 mph /  2.6 km/h 2.4 mph /  3.9 km/h 53 % 0 in /  0.0 mm
12:15 89.4 °F /  31.9 °C 65.3 °F /  18.5 °C 29.8 in /  1010.7 hPa SSW 3 mph /  4.8 km/h 6 mph /  9.7 km/h 45 % 0 in /  0.0 mm
12:18 85.1 °F /  29.5 °C 66 °F /  18.9 °C 29.9 in /  1013.8 hPa South 1.6 mph /  2.6 km/h 2.4 mph /  3.9 km/h 53 % 0 in /  0.0 mm
12:23 85.1 °F /  29.5 °C 66 °F /  18.9 °C 29.9 in /  1013.8 hPa South 1.6 mph /  2.6 km/h 2.4 mph /  3.9 km/h 53 % 0 in /  0.0 mm
12:25 88.9 °F /  31.6 °C 64.8 °F /  18.2 °C 29.8 in /  1010.0 hPa SSW 3 mph /  4.8 km/h 6 mph /  9.7 km/h 45 % 0 in /  0.0 mm
12:28 85.1 °F /  29.5 °C 66 °F /  18.9 °C 29.9 in /  1013.8 hPa South 1.6 mph /  2.6 km/h 2.4 mph /  3.9 km/h 53 % 0 in /  0.0 mm
12:33 85.1 °F /  29.5 °C 66 °F /  18.9 °C 29.9 in /  1013.8 hPa South 1.6 mph /  2.6 km/h 2.4 mph /  3.9 km/h 53 % 0 in /  0.0 mm
12:35 88.9 °F /  31.6 °C 64 °F /  17.8 °C 29.8 in /  1010.0 hPa SW 3 mph /  4.8 km/h 10 mph /  16.1 km/h 44 % 0 in /  0.0 mm
12:38 85.1 °F /  29.5 °C 66 °F /  18.9 °C 29.9 in /  1013.8 hPa South 1.6 mph /  2.6 km/h 2.4 mph /  3.9 km/h 53 % 0 in /  0.0 mm
12:43 85.1 °F /  29.5 °C 66 °F /  18.9 °C 29.9 in /  1013.8 hPa South 1.6 mph /  2.6 km/h 2.4 mph /  3.9 km/h 53 % 0 in /  0.0 mm
12:45 90 °F /  32.2 °C 64.6 °F /  18.1 °C 29.8 in /  1010.0 hPa SW 3 mph /  4.8 km/h 8 mph /  12.9 km/h 43 % 0 in /  0.0 mm
12:48 85.1 °F /  29.5 °C 66 °F /  18.9 °C 29.9 in /  1013.8 hPa South 1.6 mph /  2.6 km/h 2.4 mph /  3.9 km/h 53 % 0 in /  0.0 mm
12:53 85.1 °F /  29.5 °C 66 °F /  18.9 °C 29.9 in /  1013.8 hPa South 1.6 mph /  2.6 km/h 2.4 mph /  3.9 km/h 53 % 0 in /  0.0 mm
12:55 88.5 °F /  31.4 °C 62.4 °F /  16.9 °C 29.8 in /  1010.0 hPa SW 6 mph /  9.7 km/h 9 mph /  14.5 km/h 42 % 0 in /  0.0 mm
12:58 85.1 °F /  29.5 °C 66 °F /  18.9 °C 29.9 in /  1013.8 hPa South 1.6 mph /  2.6 km/h 2.4 mph /  3.9 km/h 53 % 0 in /  0.0 mm
13:03 85.1 °F /  29.5 °C 66 °F /  18.9 °C 29.9 in /  1013.8 hPa South 1.6 mph /  2.6 km/h 2.4 mph /  3.9 km/h 53 % 0 in /  0.0 mm
13:05 88.5 °F /  31.4 °C 61.2 °F /  16.2 °C 29.8 in /  1010.0 hPa SSW 3 mph /  4.8 km/h 7 mph /  11.3 km/h 40 % 0 in /  0.0 mm
13:08 85.1 °F /  29.5 °C 66 °F /  18.9 °C 29.9 in /  1013.8 hPa South 1.6 mph /  2.6 km/h 2.4 mph /  3.9 km/h 53 % 0 in /  0.0 mm
13:13 85.1 °F /  29.5 °C 66 °F /  18.9 °C 29.9 in /  1013.8 hPa South 1.6 mph /  2.6 km/h 2.4 mph /  3.9 km/h 53 % 0 in /  0.0 mm
13:15 88.2 °F /  31.2 °C 60.1 °F /  15.6 °C 29.8 in /  1010.0 hPa SW 5 mph /  8.0 km/h 8 mph /  12.9 km/h 39 % 0 in /  0.0 mm
13:18 85.1 °F /  29.5 °C 66 °F /  18.9 °C 29.9 in /  1013.8 hPa South 1.6 mph /  2.6 km/h 2.4 mph /  3.9 km/h 53 % 0 in /  0.0 mm
13:23 85.1 °F /  29.5 °C 66 °F /  18.9 °C 29.9 in /  1013.8 hPa South 1.6 mph /  2.6 km/h 2.4 mph /  3.9 km/h 53 % 0 in /  0.0 mm
13:25 88.3 °F /  31.3 °C 60.3 °F /  15.7 °C 29.8 in /  1010.0 hPa SW 3 mph /  4.8 km/h 11 mph /  17.7 km/h 39 % 0 in /  0.0 mm
13:28 85.1 °F /  29.5 °C 66 °F /  18.9 °C 29.9 in /  1013.8 hPa South 1.6 mph /  2.6 km/h 2.4 mph /  3.9 km/h 53 % 0 in /  0.0 mm
13:33 85.1 °F /  29.5 °C 66 °F /  18.9 °C 29.9 in /  1013.8 hPa South 1.6 mph /  2.6 km/h 2.4 mph /  3.9 km/h 53 % 0 in /  0.0 mm
13:35 88.2 °F /  31.2 °C 59.4 °F /  15.2 °C 29.8 in /  1010.0 hPa SSW 6 mph /  9.7 km/h 8 mph /  12.9 km/h 38 % 0 in /  0.0 mm
13:38 85.1 °F /  29.5 °C 66 °F /  18.9 °C 29.9 in /  1013.8 hPa South 1.6 mph /  2.6 km/h 2.4 mph /  3.9 km/h 53 % 0 in /  0.0 mm
13:43 85.1 °F /  29.5 °C 66 °F /  18.9 °C 29.9 in /  1013.8 hPa South 1.6 mph /  2.6 km/h 2.4 mph /  3.9 km/h 53 % 0 in /  0.0 mm
13:45 87.8 °F /  31.0 °C 59.7 °F /  15.4 °C 29.8 in /  1010.0 hPa SW 2 mph /  3.2 km/h 8 mph /  12.9 km/h 39 % 0 in /  0.0 mm
13:48 85.1 °F /  29.5 °C 66 °F /  18.9 °C 29.9 in /  1013.8 hPa South 1.6 mph /  2.6 km/h 2.4 mph /  3.9 km/h 53 % 0 in /  0.0 mm
13:53 85.1 °F /  29.5 °C 66 °F /  18.9 °C 29.9 in /  1013.8 hPa South 1.6 mph /  2.6 km/h 2.4 mph /  3.9 km/h 53 % 0 in /  0.0 mm
13:55 86.7 °F /  30.4 °C 59.5 °F /  15.3 °C 29.8 in /  1010.0 hPa SW 5 mph /  8.0 km/h 5 mph /  8.0 km/h 40 % 0 in /  0.0 mm
13:58 85.1 °F /  29.5 °C 66 °F /  18.9 °C 29.9 in /  1013.8 hPa South 1.6 mph /  2.6 km/h 2.4 mph /  3.9 km/h 53 % 0 in /  0.0 mm
14:03 85.1 °F /  29.5 °C 66 °F /  18.9 °C 29.9 in /  1013.8 hPa South 1.6 mph /  2.6 km/h 2.4 mph /  3.9 km/h 53 % 0 in /  0.0 mm
14:05 86.9 °F /  30.5 °C 59.7 °F /  15.4 °C 29.8 in /  1010.0 hPa SW 3 mph /  4.8 km/h 8 mph /  12.9 km/h 40 % 0 in /  0.0 mm
14:08 85.1 °F /  29.5 °C 66 °F /  18.9 °C 29.9 in /  1013.8 hPa South 1.6 mph /  2.6 km/h 2.4 mph /  3.9 km/h 53 % 0 in /  0.0 mm
14:13 85.1 °F /  29.5 °C 66 °F /  18.9 °C 29.9 in /  1013.8 hPa South 1.6 mph /  2.6 km/h 2.4 mph /  3.9 km/h 53 % 0 in /  0.0 mm
14:15 85.6 °F /  29.8 °C 59.9 °F /  15.5 °C 29.8 in /  1010.0 hPa SW 3 mph /  4.8 km/h 7 mph /  11.3 km/h 42 % 0 in /  0.0 mm
14:18 85.1 °F /  29.5 °C 66 °F /  18.9 °C 29.9 in /  1013.8 hPa South 1.6 mph /  2.6 km/h 2.4 mph /  3.9 km/h 53 % 0 in /  0.0 mm
14:23 85.1 °F /  29.5 °C 66 °F /  18.9 °C 29.9 in /  1013.8 hPa South 1.6 mph /  2.6 km/h 2.4 mph /  3.9 km/h 53 % 0 in /  0.0 mm
14:25 85.1 °F /  29.5 °C 59.4 °F /  15.2 °C 29.8 in /  1010.0 hPa SW 3 mph /  4.8 km/h 7 mph /  11.3 km/h 42 % 0 in /  0.0 mm
14:28 85.1 °F /  29.5 °C 66 °F /  18.9 °C 29.9 in /  1013.8 hPa South 1.6 mph /  2.6 km/h 2.4 mph /  3.9 km/h 53 % 0 in /  0.0 mm
14:33 85.1 °F /  29.5 °C 66 °F /  18.9 °C 29.9 in /  1013.8 hPa South 1.6 mph /  2.6 km/h 2.4 mph /  3.9 km/h 53 % 0 in /  0.0 mm
14:35 84 °F /  28.9 °C 59.7 °F /  15.4 °C 29.8 in /  1010.0 hPa SW 5 mph /  8.0 km/h 5 mph /  8.0 km/h 44 % 0 in /  0.0 mm
14:38 85.1 °F /  29.5 °C 66 °F /  18.9 °C 29.9 in /  1013.8 hPa South 1.6 mph /  2.6 km/h 2.4 mph /  3.9 km/h 53 % 0 in /  0.0 mm
14:43 85.1 °F /  29.5 °C 66 °F /  18.9 °C 29.9 in /  1013.8 hPa South 1.6 mph /  2.6 km/h 2.4 mph /  3.9 km/h 53 % 0 in /  0.0 mm
14:45 83.3 °F /  28.5 °C 60.4 °F /  15.8 °C 29.8 in /  1010.0 hPa SSW 3 mph /  4.8 km/h 3 mph /  4.8 km/h 46 % 0 in /  0.0 mm
14:48 85.1 °F /  29.5 °C 66 °F /  18.9 °C 29.9 in /  1013.8 hPa South 1.6 mph /  2.6 km/h 2.4 mph /  3.9 km/h 53 % 0 in /  0.0 mm
14:53 85.1 °F /  29.5 °C 66 °F /  18.9 °C 29.9 in /  1013.8 hPa South 1.6 mph /  2.6 km/h 2.4 mph /  3.9 km/h 53 % 0 in /  0.0 mm
14:55 83.3 °F /  28.5 °C 61 °F /  16.1 °C 29.8 in /  1009.0 hPa SSW 2 mph /  3.2 km/h 3 mph /  4.8 km/h 47 % 0 in /  0.0 mm
14:58 85.1 °F /  29.5 °C 66 °F /  18.9 °C 29.9 in /  1013.8 hPa South 1.6 mph /  2.6 km/h 2.4 mph /  3.9 km/h 53 % 0 in /  0.0 mm
15:03 85.1 °F /  29.5 °C 66 °F /  18.9 °C 29.9 in /  1013.8 hPa South 1.6 mph /  2.6 km/h 2.4 mph /  3.9 km/h 53 % 0 in /  0.0 mm
15:05 82.6 °F /  28.1 °C 61 °F /  16.1 °C 29.8 in /  1010.0 hPa SSW 3 mph /  4.8 km/h 6 mph /  9.7 km/h 48 % 0 in /  0.0 mm
15:08 85.1 °F /  29.5 °C 66 °F /  18.9 °C 29.9 in /  1013.8 hPa South 1.6 mph /  2.6 km/h 2.4 mph /  3.9 km/h 53 % 0 in /  0.0 mm
15:13 85.1 °F /  29.5 °C 66 °F /  18.9 °C 29.9 in /  1013.8 hPa South 1.6 mph /  2.6 km/h 2.4 mph /  3.9 km/h 53 % 0 in /  0.0 mm
15:15 82 °F /  27.8 °C 61.5 °F /  16.4 °C 29.8 in /  1010.0 hPa SSW 2 mph /  3.2 km/h 5 mph /  8.0 km/h 50 % 0 in /  0.0 mm
15:18 85.1 °F /  29.5 °C 66 °F /  18.9 °C 29.9 in /  1013.8 hPa South 1.6 mph /  2.6 km/h 2.4 mph /  3.9 km/h 53 % 0 in /  0.0 mm
15:23 85.1 °F /  29.5 °C 66 °F /  18.9 °C 29.9 in /  1013.8 hPa South 1.6 mph /  2.6 km/h 2.4 mph /  3.9 km/h 53 % 0 in /  0.0 mm
15:25 81.9 °F /  27.7 °C 62.1 °F /  16.7 °C 29.8 in /  1010.0 hPa SSW 1 mph /  1.6 km/h 6 mph /  9.7 km/h 51 % 0 in /  0.0 mm
15:28 85.1 °F /  29.5 °C 66 °F /  18.9 °C 29.9 in /  1013.8 hPa South 1.6 mph /  2.6 km/h 2.4 mph /  3.9 km/h 53 % 0 in /  0.0 mm
15:34 85.1 °F /  29.5 °C 66 °F /  18.9 °C 29.9 in /  1013.8 hPa South 1.6 mph /  2.6 km/h 2.4 mph /  3.9 km/h 53 % 0 in /  0.0 mm
15:35 81 °F /  27.2 °C 61.7 °F /  16.5 °C 29.8 in /  1010.0 hPa SSW 2 mph /  3.2 km/h 2 mph /  3.2 km/h 52 % 0 in /  0.0 mm
15:38 85.1 °F /  29.5 °C 66 °F /  18.9 °C 29.9 in /  1013.8 hPa South 1.6 mph /  2.6 km/h 2.4 mph /  3.9 km/h 53 % 0 in /  0.0 mm
15:44 85.1 °F /  29.5 °C 66 °F /  18.9 °C 29.9 in /  1013.8 hPa South 1.6 mph /  2.6 km/h 2.4 mph /  3.9 km/h 53 % 0 in /  0.0 mm
15:45 80.6 °F /  27.0 °C 61.9 °F /  16.6 °C 29.8 in /  1010.0 hPa SW 3 mph /  4.8 km/h 4 mph /  6.4 km/h 53 % 0 in /  0.0 mm
15:49 85.1 °F /  29.5 °C 66 °F /  18.9 °C 29.9 in /  1013.8 hPa South 1.6 mph /  2.6 km/h 2.4 mph /  3.9 km/h 53 % 0 in /  0.0 mm
15:54 85.1 °F /  29.5 °C 66 °F /  18.9 °C 29.9 in /  1013.8 hPa South 1.6 mph /  2.6 km/h 2.4 mph /  3.9 km/h 53 % 0 in /  0.0 mm
15:55 80.2 °F /  26.8 °C 62.6 °F /  17.0 °C 29.8 in /  1009.0 hPa SW 1 mph /  1.6 km/h 4 mph /  6.4 km/h 55 % 0 in /  0.0 mm
15:59 85.1 °F /  29.5 °C 66 °F /  18.9 °C 29.9 in /  1013.8 hPa South 1.6 mph /  2.6 km/h 2.4 mph /  3.9 km/h 53 % 0 in /  0.0 mm
16:04 85.1 °F /  29.5 °C 66 °F /  18.9 °C 29.9 in /  1013.8 hPa South 1.6 mph /  2.6 km/h 2.4 mph /  3.9 km/h 53 % 0 in /  0.0 mm
16:05 79.9 °F /  26.6 °C 63.3 °F /  17.4 °C 29.8 in /  1010.0 hPa SW 3 mph /  4.8 km/h 3 mph /  4.8 km/h 57 % 0 in /  0.0 mm
16:09 85.1 °F /  29.5 °C 66 °F /  18.9 °C 29.9 in /  1013.8 hPa South 1.6 mph /  2.6 km/h 2.4 mph /  3.9 km/h 53 % 0 in /  0.0 mm
16:14 85.1 °F /  29.5 °C 66 °F /  18.9 °C 29.9 in /  1013.8 hPa South 1.6 mph /  2.6 km/h 2.4 mph /  3.9 km/h 53 % 0 in /  0.0 mm
16:15 79.5 °F /  26.4 °C 63.9 °F /  17.7 °C 29.8 in /  1010.0 hPa SW 1 mph /  1.6 km/h 3 mph /  4.8 km/h 59 % 0 in /  0.0 mm
16:19 85.1 °F /  29.5 °C 66 °F /  18.9 °C 29.9 in /  1013.8 hPa South 1.6 mph /  2.6 km/h 2.4 mph /  3.9 km/h 53 % 0 in /  0.0 mm
16:24 85.1 °F /  29.5 °C 66 °F /  18.9 °C 29.9 in /  1013.8 hPa South 1.6 mph /  2.6 km/h 2.4 mph /  3.9 km/h 53 % 0 in /  0.0 mm
16:29 85.1 °F /  29.5 °C 66 °F /  18.9 °C 29.9 in /  1013.8 hPa South 1.6 mph /  2.6 km/h 2.4 mph /  3.9 km/h 53 % 0 in /  0.0 mm
16:34 85.1 °F /  29.5 °C 66 °F /  18.9 °C 29.9 in /  1013.8 hPa South 1.6 mph /  2.6 km/h 2.4 mph /  3.9 km/h 53 % 0 in /  0.0 mm
16:35 78.6 °F /  25.9 °C 64 °F /  17.8 °C 29.8 in /  1010.7 hPa SW 2 mph /  3.2 km/h 3 mph /  4.8 km/h 61 % 0 in /  0.0 mm
16:39 85.1 °F /  29.5 °C 66 °F /  18.9 °C 29.9 in /  1013.8 hPa South 1.6 mph /  2.6 km/h 2.4 mph /  3.9 km/h 53 % 0 in /  0.0 mm
16:44 85.1 °F /  29.5 °C 66 °F /  18.9 °C 29.9 in /  1013.8 hPa South 1.6 mph /  2.6 km/h 2.4 mph /  3.9 km/h 53 % 0 in /  0.0 mm
16:45 78.4 °F /  25.8 °C 64.2 °F /  17.9 °C 29.8 in /  1010.7 hPa SW 2 mph /  3.2 km/h 3 mph /  4.8 km/h 62 % 0 in /  0.0 mm
16:49 85.1 °F /  29.5 °C 66 °F /  18.9 °C 29.9 in /  1013.8 hPa South 1.6 mph /  2.6 km/h 2.4 mph /  3.9 km/h 53 % 0 in /  0.0 mm
16:54 85.1 °F /  29.5 °C 66 °F /  18.9 °C 29.9 in /  1013.8 hPa South 1.6 mph /  2.6 km/h 2.4 mph /  3.9 km/h 53 % 0 in /  0.0 mm
16:55 78.1 °F /  25.6 °C 64.9 °F /  18.3 °C 29.8 in /  1010.0 hPa SW 1 mph /  1.6 km/h 4 mph /  6.4 km/h 64 % 0 in /  0.0 mm
16:59 85.1 °F /  29.5 °C 66 °F /  18.9 °C 29.9 in /  1013.8 hPa South 1.6 mph /  2.6 km/h 2.4 mph /  3.9 km/h 53 % 0 in /  0.0 mm
17:04 85.1 °F /  29.5 °C 66 °F /  18.9 °C 29.9 in /  1013.8 hPa South 1.6 mph /  2.6 km/h 2.4 mph /  3.9 km/h 53 % 0 in /  0.0 mm
17:05 77.9 °F /  25.5 °C 64.8 °F /  18.2 °C 29.8 in /  1010.0 hPa SW 2 mph /  3.2 km/h 3 mph /  4.8 km/h 64 % 0 in /  0.0 mm
17:09 85.1 °F /  29.5 °C 66 °F /  18.9 °C 29.9 in /  1013.8 hPa South 1.6 mph /  2.6 km/h 2.4 mph /  3.9 km/h 53 % 0 in /  0.0 mm
17:14 85.1 °F /  29.5 °C 66 °F /  18.9 °C 29.9 in /  1013.8 hPa South 1.6 mph /  2.6 km/h 2.4 mph /  3.9 km/h 53 % 0 in /  0.0 mm
17:15 77.7 °F /  25.4 °C 64.9 °F /  18.3 °C 29.8 in /  1010.0 hPa Calm   1 mph /  1.6 km/h 65 % 0 in /  0.0 mm
17:19 85.1 °F /  29.5 °C 66 °F /  18.9 °C 29.9 in /  1013.8 hPa South 1.6 mph /  2.6 km/h 2.4 mph /  3.9 km/h 53 % 0 in /  0.0 mm
17:24 85.1 °F /  29.5 °C 66 °F /  18.9 °C 29.9 in /  1013.8 hPa South 1.6 mph /  2.6 km/h 2.4 mph /  3.9 km/h 53 % 0 in /  0.0 mm
17:25 77.5 °F /  25.3 °C 65.3 °F /  18.5 °C 29.8 in /  1010.0 hPa Calm   1 mph /  1.6 km/h 66 % 0 in /  0.0 mm
17:29 85.1 °F /  29.5 °C 66 °F /  18.9 °C 29.9 in /  1013.8 hPa South 1.6 mph /  2.6 km/h 2.4 mph /  3.9 km/h 53 % 0 in /  0.0 mm
17:34 85.1 °F /  29.5 °C 66 °F /  18.9 °C 29.9 in /  1013.8 hPa South 1.6 mph /  2.6 km/h 2.4 mph /  3.9 km/h 53 % 0 in /  0.0 mm
17:35 77.5 °F /  25.3 °C 65.3 °F /  18.5 °C 29.8 in /  1010.0 hPa Calm   1 mph /  1.6 km/h 66 % 0 in /  0.0 mm
17:39 85.1 °F /  29.5 °C 66 °F /  18.9 °C 29.9 in /  1013.8 hPa South 1.6 mph /  2.6 km/h 2.4 mph /  3.9 km/h 53 % 0 in /  0.0 mm
17:44 85.1 °F /  29.5 °C 66 °F /  18.9 °C 29.9 in /  1013.8 hPa South 1.6 mph /  2.6 km/h 2.4 mph /  3.9 km/h 53 % 0 in /  0.0 mm
17:45 77.5 °F /  25.3 °C 65.3 °F /  18.5 °C 29.8 in /  1010.0 hPa SW 1 mph /  1.6 km/h 2 mph /  3.2 km/h 66 % 0 in /  0.0 mm
17:49 85.1 °F /  29.5 °C 66 °F /  18.9 °C 29.9 in /  1013.8 hPa South 1.6 mph /  2.6 km/h 2.4 mph /  3.9 km/h 53 % 0 in /  0.0 mm
17:54 85.1 °F /  29.5 °C 66 °F /  18.9 °C 29.9 in /  1013.8 hPa South 1.6 mph /  2.6 km/h 2.4 mph /  3.9 km/h 53 % 0 in /  0.0 mm
17:55 77.4 °F /  25.2 °C 65.5 °F /  18.6 °C 29.8 in /  1010.0 hPa Calm   2 mph /  3.2 km/h 67 % 0 in /  0.0 mm
17:59 85.1 °F /  29.5 °C 66 °F /  18.9 °C 29.9 in /  1013.8 hPa South 1.6 mph /  2.6 km/h 2.4 mph /  3.9 km/h 53 % 0 in /  0.0 mm
18:04 85.1 °F /  29.5 °C 66 °F /  18.9 °C 29.9 in /  1013.8 hPa South 1.6 mph /  2.6 km/h 2.4 mph /  3.9 km/h 53 % 0 in /  0.0 mm
18:05 77.2 °F /  25.1 °C 65.8 °F /  18.8 °C 29.8 in /  1010.0 hPa Calm   2 mph /  3.2 km/h 68 % 0 in /  0.0 mm
18:09 85.1 °F /  29.5 °C 66 °F /  18.9 °C 29.9 in /  1013.8 hPa South 1.6 mph /  2.6 km/h 2.4 mph /  3.9 km/h 53 % 0 in /  0.0 mm
18:14 85.1 °F /  29.5 °C 66 °F /  18.9 °C 29.9 in /  1013.8 hPa South 1.6 mph /  2.6 km/h 2.4 mph /  3.9 km/h 53 % 0 in /  0.0 mm
18:15 77.2 °F /  25.1 °C 65.8 °F /  18.8 °C 29.8 in /  1010.0 hPa WSW 1 mph /  1.6 km/h 2 mph /  3.2 km/h 68 % 0 in /  0.0 mm
18:19 85.1 °F /  29.5 °C 66 °F /  18.9 °C 29.9 in /  1013.8 hPa South 1.6 mph /  2.6 km/h 2.4 mph /  3.9 km/h 53 % 0 in /  0.0 mm
18:24 85.1 °F /  29.5 °C 66 °F /  18.9 °C 29.9 in /  1013.8 hPa South 1.6 mph /  2.6 km/h 2.4 mph /  3.9 km/h 53 % 0 in /  0.0 mm
18:25 77.2 °F /  25.1 °C 66.6 °F /  19.2 °C 29.8 in /  1010.0 hPa WSW 1 mph /  1.6 km/h 1 mph /  1.6 km/h 70 % 0 in /  0.0 mm
18:29 85.1 °F /  29.5 °C 66 °F /  18.9 °C 29.9 in /  1013.8 hPa South 1.6 mph /  2.6 km/h 2.4 mph /  3.9 km/h 53 % 0 in /  0.0 mm
18:34 85.1 °F /  29.5 °C 66 °F /  18.9 °C 29.9 in /  1013.8 hPa South 1.6 mph /  2.6 km/h 2.4 mph /  3.9 km/h 53 % 0 in /  0.0 mm
18:39 85.1 °F /  29.5 °C 66 °F /  18.9 °C 29.9 in /  1013.8 hPa South 1.6 mph /  2.6 km/h 2.4 mph /  3.9 km/h 53 % 0 in /  0.0 mm
18:44 85.1 °F /  29.5 °C 66 °F /  18.9 °C 29.9 in /  1013.8 hPa South 1.6 mph /  2.6 km/h 2.4 mph /  3.9 km/h 53 % 0 in /  0.0 mm
18:49 85.1 °F /  29.5 °C 66 °F /  18.9 °C 29.9 in /  1013.8 hPa South 1.6 mph /  2.6 km/h 2.4 mph /  3.9 km/h 53 % 0 in /  0.0 mm
18:54 85.1 °F /  29.5 °C 66 °F /  18.9 °C 29.9 in /  1013.8 hPa South 1.6 mph /  2.6 km/h 2.4 mph /  3.9 km/h 53 % 0 in /  0.0 mm
18:59 85.1 °F /  29.5 °C 66 °F /  18.9 °C 29.9 in /  1013.8 hPa South 1.6 mph /  2.6 km/h 2.4 mph /  3.9 km/h 53 % 0 in /  0.0 mm
19:04 85.1 °F /  29.5 °C 66 °F /  18.9 °C 29.9 in /  1013.8 hPa South 1.6 mph /  2.6 km/h 2.4 mph /  3.9 km/h 53 % 0 in /  0.0 mm
19:09 85.1 °F /  29.5 °C 66 °F /  18.9 °C 29.9 in /  1013.8 hPa South 1.6 mph /  2.6 km/h 2.4 mph /  3.9 km/h 53 % 0 in /  0.0 mm
19:14 85.1 °F /  29.5 °C 66 °F /  18.9 °C 29.9 in /  1013.8 hPa South 1.6 mph /  2.6 km/h 2.4 mph /  3.9 km/h 53 % 0 in /  0.0 mm
19:19 85.1 °F /  29.5 °C 66 °F /  18.9 °C 29.9 in /  1013.8 hPa South 1.6 mph /  2.6 km/h 2.4 mph /  3.9 km/h 53 % 0 in /  0.0 mm
19:24 85.1 °F /  29.5 °C 66 °F /  18.9 °C 29.9 in /  1013.8 hPa South 1.6 mph /  2.6 km/h 2.4 mph /  3.9 km/h 53 % 0 in /  0.0 mm
19:25 76.8 °F /  24.9 °C 66.7 °F /  19.3 °C 29.8 in /  1010.0 hPa NNE 1 mph /  1.6 km/h 2 mph /  3.2 km/h 71 % 0 in /  0.0 mm
19:29 85.1 °F /  29.5 °C 66 °F /  18.9 °C 29.9 in /  1013.8 hPa South 1.6 mph /  2.6 km/h 2.4 mph /  3.9 km/h 53 % 0 in /  0.0 mm
19:34 85.1 °F /  29.5 °C 66 °F /  18.9 °C 29.9 in /  1013.8 hPa South 1.6 mph /  2.6 km/h 2.4 mph /  3.9 km/h 53 % 0 in /  0.0 mm
19:35 76.8 °F /  24.9 °C 66.7 °F /  19.3 °C 29.8 in /  1010.0 hPa SSE 1 mph /  1.6 km/h 2 mph /  3.2 km/h 71 % 0 in /  0.0 mm
19:39 85.1 °F /  29.5 °C 66 °F /  18.9 °C 29.9 in /  1013.8 hPa South 1.6 mph /  2.6 km/h 2.4 mph /  3.9 km/h 53 % 0 in /  0.0 mm
19:44 85.1 °F /  29.5 °C 66 °F /  18.9 °C 29.9 in /  1013.8 hPa South 1.6 mph /  2.6 km/h 2.4 mph /  3.9 km/h 53 % 0 in /  0.0 mm
19:45 76.8 °F /  24.9 °C 67.1 °F /  19.5 °C 29.8 in /  1010.0 hPa ENE 2 mph /  3.2 km/h 2 mph /  3.2 km/h 72 % 0 in /  0.0 mm
19:49 85.1 °F /  29.5 °C 66 °F /  18.9 °C 29.9 in /  1013.8 hPa South 1.6 mph /  2.6 km/h 2.4 mph /  3.9 km/h 53 % 0 in /  0.0 mm
19:54 85.1 °F /  29.5 °C 66 °F /  18.9 °C 29.9 in /  1013.8 hPa South 1.6 mph /  2.6 km/h 2.4 mph /  3.9 km/h 53 % 0 in /  0.0 mm
19:55 76.8 °F /  24.9 °C 67.1 °F /  19.5 °C 29.8 in /  1009.0 hPa NE 3 mph /  4.8 km/h 4 mph /  6.4 km/h 72 % 0 in /  0.0 mm
19:59 85.1 °F /  29.5 °C 66 °F /  18.9 °C 29.9 in /  1013.8 hPa South 1.6 mph /  2.6 km/h 2.4 mph /  3.9 km/h 53 % 0 in /  0.0 mm
20:04 85.1 °F /  29.5 °C 66 °F /  18.9 °C 29.9 in /  1013.8 hPa South 1.6 mph /  2.6 km/h 2.4 mph /  3.9 km/h 53 % 0 in /  0.0 mm
20:05 76.8 °F /  24.9 °C 67.5 °F /  19.7 °C 29.8 in /  1009.0 hPa NNE 3 mph /  4.8 km/h 4 mph /  6.4 km/h 73 % 0 in /  0.0 mm
20:09 85.1 °F /  29.5 °C 66 °F /  18.9 °C 29.9 in /  1013.8 hPa South 1.6 mph /  2.6 km/h 2.4 mph /  3.9 km/h 53 % 0 in /  0.0 mm
20:14 85.1 °F /  29.5 °C 66 °F /  18.9 °C 29.9 in /  1013.8 hPa South 1.6 mph /  2.6 km/h 2.4 mph /  3.9 km/h 53 % 0 in /  0.0 mm
20:15 76.8 °F /  24.9 °C 67.5 °F /  19.7 °C 29.8 in /  1009.0 hPa NE 2 mph /  3.2 km/h 3 mph /  4.8 km/h 73 % 0 in /  0.0 mm
20:19 85.1 °F /  29.5 °C 66 °F /  18.9 °C 29.9 in /  1013.8 hPa South 1.6 mph /  2.6 km/h 2.4 mph /  3.9 km/h 53 % 0 in /  0.0 mm
20:24 85.1 °F /  29.5 °C 66 °F /  18.9 °C 29.9 in /  1013.8 hPa South 1.6 mph /  2.6 km/h 2.4 mph /  3.9 km/h 53 % 0 in /  0.0 mm
20:25 76.8 °F /  24.9 °C 67.8 °F /  19.9 °C 29.8 in /  1008.0 hPa NE 2 mph /  3.2 km/h 4 mph /  6.4 km/h 74 % 0 in /  0.0 mm
20:29 85.1 °F /  29.5 °C 66 °F /  18.9 °C 29.9 in /  1013.8 hPa South 1.6 mph /  2.6 km/h 2.4 mph /  3.9 km/h 53 % 0 in /  0.0 mm
20:34 85.1 °F /  29.5 °C 66 °F /  18.9 °C 29.9 in /  1013.8 hPa South 1.6 mph /  2.6 km/h 2.4 mph /  3.9 km/h 53 % 0 in /  0.0 mm
20:35 76.8 °F /  24.9 °C 67.8 °F /  19.9 °C 29.8 in /  1008.0 hPa ENE 2 mph /  3.2 km/h 3 mph /  4.8 km/h 74 % 0 in /  0.0 mm
20:39 85.1 °F /  29.5 °C 66 °F /  18.9 °C 29.9 in /  1013.8 hPa South 1.6 mph /  2.6 km/h 2.4 mph /  3.9 km/h 53 % 0 in /  0.0 mm
20:44 85.1 °F /  29.5 °C 66 °F /  18.9 °C 29.9 in /  1013.8 hPa South 1.6 mph /  2.6 km/h 2.4 mph /  3.9 km/h 53 % 0 in /  0.0 mm
20:45 76.8 °F /  24.9 °C 68.4 °F /  20.2 °C 29.8 in /  1008.0 hPa ENE 2 mph /  3.2 km/h 3 mph /  4.8 km/h 75 % 0 in /  0.0 mm
20:49 85.1 °F /  29.5 °C 66 °F /  18.9 °C 29.9 in /  1013.8 hPa South 1.6 mph /  2.6 km/h 2.4 mph /  3.9 km/h 53 % 0 in /  0.0 mm
20:50 85.1 °F /  29.5 °C 66 °F /  18.9 °C 29.9 in /  1013.8 hPa South 1.6 mph /  2.6 km/h 2.4 mph /  3.9 km/h 53 % 0 in /  0.0 mm
20:55 85.1 °F /  29.5 °C 66 °F /  18.9 °C 29.9 in /  1013.8 hPa South 1.6 mph /  2.6 km/h 2.4 mph /  3.9 km/h 53 % 0 in /  0.0 mm
21:00 85.1 °F /  29.5 °C 66 °F /  18.9 °C 29.9 in /  1013.8 hPa South 1.6 mph /  2.6 km/h 2.4 mph /  3.9 km/h 53 % 0 in /  0.0 mm
21:05 85.1 °F /  29.5 °C 66 °F /  18.9 °C 29.9 in /  1013.8 hPa South 1.6 mph /  2.6 km/h 2.4 mph /  3.9 km/h 53 % 0 in /  0.0 mm
21:10 85.1 °F /  29.5 °C 66 °F /  18.9 °C 29.9 in /  1013.8 hPa South 1.6 mph /  2.6 km/h 2.4 mph /  3.9 km/h 53 % 0 in /  0.0 mm
21:15 85.1 °F /  29.5 °C 66 °F /  18.9 °C 29.9 in /  1013.8 hPa South 1.6 mph /  2.6 km/h 2.4 mph /  3.9 km/h 53 % 0 in /  0.0 mm
21:20 85.1 °F /  29.5 °C 66 °F /  18.9 °C 29.9 in /  1013.8 hPa South 1.6 mph /  2.6 km/h 2.4 mph /  3.9 km/h 53 % 0 in /  0.0 mm
21:25 85.1 °F /  29.5 °C 66 °F /  18.9 °C 29.9 in /  1013.8 hPa South 1.6 mph /  2.6 km/h 2.4 mph /  3.9 km/h 53 % 0 in /  0.0 mm
21:30 85.1 °F /  29.5 °C 66 °F /  18.9 °C 29.9 in /  1013.8 hPa South 1.6 mph /  2.6 km/h 2.4 mph /  3.9 km/h 53 % 0 in /  0.0 mm
21:35 85.1 °F /  29.5 °C 66 °F /  18.9 °C 29.9 in /  1013.8 hPa South 1.6 mph /  2.6 km/h 2.4 mph /  3.9 km/h 53 % 0 in /  0.0 mm
21:40 85.1 °F /  29.5 °C 66 °F /  18.9 °C 29.9 in /  1013.8 hPa South 1.6 mph /  2.6 km/h 2.4 mph /  3.9 km/h 53 % 0 in /  0.0 mm
21:45 85.1 °F /  29.5 °C 66 °F /  18.9 °C 29.9 in /  1013.8 hPa South 1.6 mph /  2.6 km/h 2.4 mph /  3.9 km/h 53 % 0 in /  0.0 mm
21:50 85.1 °F /  29.5 °C 66 °F /  18.9 °C 29.9 in /  1013.8 hPa South 1.6 mph /  2.6 km/h 2.4 mph /  3.9 km/h 53 % 0 in /  0.0 mm
21:55 85.1 °F /  29.5 °C 66 °F /  18.9 °C 29.9 in /  1013.8 hPa South 1.6 mph /  2.6 km/h 2.4 mph /  3.9 km/h 53 % 0 in /  0.0 mm
22:00 85.1 °F /  29.5 °C 66 °F /  18.9 °C 29.9 in /  1013.8 hPa South 1.6 mph /  2.6 km/h 2.4 mph /  3.9 km/h 53 % 0 in /  0.0 mm
22:05 85.1 °F /  29.5 °C 66 °F /  18.9 °C 29.9 in /  1013.8 hPa South 1.6 mph /  2.6 km/h 2.4 mph /  3.9 km/h 53 % 0 in /  0.0 mm
22:10 85.1 °F /  29.5 °C 66 °F /  18.9 °C 29.9 in /  1013.8 hPa South 1.6 mph /  2.6 km/h 2.4 mph /  3.9 km/h 53 % 0 in /  0.0 mm
22:15 85.1 °F /  29.5 °C 66 °F /  18.9 °C 29.9 in /  1013.8 hPa South 1.6 mph /  2.6 km/h 2.4 mph /  3.9 km/h 53 % 0 in /  0.0 mm
22:20 85.1 °F /  29.5 °C 66 °F /  18.9 °C 29.9 in /  1013.8 hPa South 1.6 mph /  2.6 km/h 2.4 mph /  3.9 km/h 53 % 0 in /  0.0 mm
22:25 85.1 °F /  29.5 °C 66 °F /  18.9 °C 29.9 in /  1013.8 hPa South 1.6 mph /  2.6 km/h 2.4 mph /  3.9 km/h 53 % 0 in /  0.0 mm
22:30 85.1 °F /  29.5 °C 66 °F /  18.9 °C 29.9 in /  1013.8 hPa South 1.6 mph /  2.6 km/h 2.4 mph /  3.9 km/h 53 % 0 in /  0.0 mm
22:35 85.1 °F /  29.5 °C 66 °F /  18.9 °C 29.9 in /  1013.8 hPa South 1.6 mph /  2.6 km/h 2.4 mph /  3.9 km/h 53 % 0 in /  0.0 mm
22:40 85.1 °F /  29.5 °C 66 °F /  18.9 °C 29.9 in /  1013.8 hPa South 1.6 mph /  2.6 km/h 2.4 mph /  3.9 km/h 53 % 0 in /  0.0 mm
22:45 85.1 °F /  29.5 °C 66 °F /  18.9 °C 29.9 in /  1013.8 hPa South 1.6 mph /  2.6 km/h 2.4 mph /  3.9 km/h 53 % 0 in /  0.0 mm
22:50 85.1 °F /  29.5 °C 66 °F /  18.9 °C 29.9 in /  1013.8 hPa South 1.6 mph /  2.6 km/h 2.4 mph /  3.9 km/h 53 % 0 in /  0.0 mm
22:55 85.1 °F /  29.5 °C 66 °F /  18.9 °C 29.9 in /  1013.8 hPa South 1.6 mph /  2.6 km/h 2.4 mph /  3.9 km/h 53 % 0 in /  0.0 mm
23:00 85.1 °F /  29.5 °C 66 °F /  18.9 °C 29.9 in /  1013.8 hPa South 1.6 mph /  2.6 km/h 2.4 mph /  3.9 km/h 53 % 0 in /  0.0 mm
23:05 85.1 °F /  29.5 °C 66 °F /  18.9 °C 29.9 in /  1013.8 hPa South 1.6 mph /  2.6 km/h 2.4 mph /  3.9 km/h 53 % 0 in /  0.0 mm
23:10 85.1 °F /  29.5 °C 66 °F /  18.9 °C 29.9 in /  1013.8 hPa South 1.6 mph /  2.6 km/h 2.4 mph /  3.9 km/h 53 % 0 in /  0.0 mm
23:15 85.1 °F /  29.5 °C 66 °F /  18.9 °C 29.9 in /  1013.8 hPa South 1.6 mph /  2.6 km/h 2.4 mph /  3.9 km/h 53 % 0 in /  0.0 mm
23:20 85.1 °F /  29.5 °C 66 °F /  18.9 °C 29.9 in /  1013.8 hPa South 1.6 mph /  2.6 km/h 2.4 mph /  3.9 km/h 53 % 0 in /  0.0 mm
23:25 85.1 °F /  29.5 °C 66 °F /  18.9 °C 29.9 in /  1013.8 hPa South 1.6 mph /  2.6 km/h 2.4 mph /  3.9 km/h 53 % 0 in /  0.0 mm
23:33 77.2 °F /  25.1 °C 66.6 °F /  19.2 °C 29.8 in /  1010.0 hPa ENE 1.2 mph /  1.9 km/h 1.2 mph /  1.9 km/h 70 % 0 in /  0.0 mm
23:35 76.8 °F /  24.9 °C 69.8 °F /  21.0 °C 29.7 in /  1007.0 hPa NE 2 mph /  3.2 km/h 3 mph /  4.8 km/h 79 % 0 in /  0.0 mm
23:38 77.2 °F /  25.1 °C 66.6 °F /  19.2 °C 29.8 in /  1010.0 hPa ENE 1.6 mph /  2.6 km/h 1.6 mph /  2.6 km/h 70 % 0 in /  0.0 mm
23:43 77 °F /  25.0 °C 66.6 °F /  19.2 °C 29.8 in /  1010.0 hPa SSW 1.2 mph /  1.9 km/h   70 % 0 in /  0.0 mm
23:45 76.8 °F /  24.9 °C 69.4 °F /  20.8 °C 29.7 in /  1007.0 hPa NE 5 mph /  8.0 km/h 7 mph /  11.3 km/h 78 % 0 in /  0.0 mm
23:48 77 °F /  25.0 °C 66.6 °F /  19.2 °C 29.8 in /  1010.0 hPa ENE 1.6 mph /  2.6 km/h 1.6 mph /  2.6 km/h 70 % 0 in /  0.0 mm
23:53 77.2 °F /  25.1 °C 66.6 °F /  19.2 °C 29.8 in /  1010.0 hPa NNE 2.4 mph /  3.9 km/h 2.4 mph /  3.9 km/h 70 % 0 in /  0.0 mm
23:55 76.8 °F /  24.9 °C 69.8 °F /  21.0 °C 29.7 in /  1007.0 hPa NNE 2 mph /  3.2 km/h 5 mph /  8.0 km/h 79 % 0 in /  0.0 mm
23:58 77 °F /  25.0 °C 66.6 °F /  19.2 °C 29.8 in /  1010.0 hPa NE 3.5 mph /  5.6 km/h 3.5 mph /  5.6 km/h 70 % 0 in /  0.0 mm
Meteo Sesrovires
Elogis d' Weather Underground - 4 mb

Guio original per  Jim McMurry - jmcmurry@mwt.net Adaptat per a la plantilla per  Wim van der Kuil - Leuven-Template.eu

Trobareu la nostra informacio del temps tambe a:

Weather Underground

AWEKAS